Pikesville, MD (21208)

04:13 EDT le 01 novembre 2014 (GMT -0400)
Mt. Washington | Change Station
CLOSE
Current Station
Stations météorologiques personnelles
Location: Baltimore, MD
Altitude: 377 ft
Stations météo à proximité

Alt. 377 ft 39.37 °N, 76.66 °W | Updated 6 seconds ago

Couvert
Couvert
46.4 ° F
Paraît 46 ° F
N
0.0
Vent Variable Vent de NO
Gusts 0.0 mph

Aujourd'hui
Haut(e) -- | Bas -- ° F
--% Risque de précip.
Hier
Haut(e) -- | Bas -- ° F
Precip. -- pouce
7:34 AM 6:05 PM
Lune gibbeuse croissante, 64% visible
Pression 29.77 pouce
Visibilité 10.0 Miles terrestres
Nuages Couvert 2000 ft
Refroidissement éolien 46 ° F
Point de rosée 41 ° F
Humidité 82%
Précipitations 0.00 pouce
Profondeur de la couche neigeuse Non disponible.
UV 0.0 sur 12
Pollen .10 sur 12
Qualité de l'air Non disponible.
Flu Activity Non disponible.
METAR KBWI 010754Z VRB03KT 10SM OVC020 08/05 A2976 RMK AO2 RAE25 SLP079 P0007 T00830050 $

More Conditions Fewer Conditions

Pression 29.77 pouce
Visibilité 10.0 Miles terrestres
Nuages Couvert 2000 ft
Refroidissement éolien 46 ° F
Point de rosée 41 ° F
Humidité 82%
Précipitations 0.00 pouce
Profondeur de la couche neigeuse Non disponible.
UV 0.0 sur 12
Pollen .10 sur 12
Qualité de l'air Non disponible.
Flu Activity Non disponible.
METAR KBWI 010754Z VRB03KT 10SM OVC020 08/05 A2976 RMK AO2 RAE25 SLP079 P0007 T00830050 $

More Conditions Fewer Conditions

10-Day Weather Forecast

Almanac

Astronomie

Nov. 01, 2014 Lever Coucher
Temps réel
Crépuscule civil
Crépuscule nautique
Crépuscule astronomique
Lune
Durée de lumière visible
Longueur du jour
Tomorrow will be .
, % of the Moon is Illuminated

Extrêmes aujourd'hui

State Highs State Lows

Community

WunderPhotos

Upload Photos

1,766,866 Photos téléchargées !

WunderBlogs® & News

Nearby

Qualité de l'air

  Qualité de l'air Indice de la qualité de l'air Polluant
Not available.

Épaisseur de neige

Station Depth Altitude

Activité sismique

Ville Distance Mag. Time & Date
Minimum magnitude displayed is 2.5.

Températures des eaux côtières

Lieu Température

Stations météo à proximité